Terminal Aerodrome Forecast
Issued by NWS

Home | Current Version | Previous Version | Text Only | Print | Product List | Glossary On
Versions: 1 2 3 4 5 6 7 8 9 10 11 12 13 14
000
FTUS45 KVEF 221729
TAFBIH
TAF
KBIH 221729Z 2218/2318 VRB06KT P6SM VCSH SCT060 BKN100
     FM222000 17011G17KT P6SM VCSH SCT060
      TEMPO 2221/2301 VRB15G25KT -TSRA BKN050CB
     FM230200 VRB06KT P6SM VCSH BKN060
     FM230800 34008KT P6SM BKN060=

USA.gov is the U.S. government's official web portal to all federal, state and local government web resources and services.